Terminal Aerodrome Forecast
Issued by NWS Portland, ME

Home | Current Version | Previous Version | Text Only | Print | Product List | Glossary On
Versions: 1 2 3 4 5 6 7 8 9 10 11 12 13 14 15 16 17
000
FTUS41 KGYX 280500
TAFCON
TAF
KCON 280534Z 2806/2906 VRB03KT 3SM BR BKN003
     FM281200 14008KT 5SM -SHRA BR OVC005
     FM281400 15009KT 2SM SHRA OVC010
     FM282200 20007KT P6SM -SHRA BKN018 OVC030
     FM290400 20006KT P6SM BKN040=

USA.gov is the U.S. government's official web portal to all federal, state and local government web resources and services.